createdAt,value
2018-11-01T00:02:09.173Z,154.00
2018-11-01T00:04:37.587Z,150.30
2018-11-01T00:07:06.203Z,144.53
2018-11-01T00:09:34.592Z,145.80
2018-11-01T00:12:03.001Z,146.07
2018-11-01T00:14:31.495Z,137.97
2018-11-01T00:16:59.900Z,140.80
2018-11-01T00:19:28.300Z,140.87
2018-11-01T00:21:56.723Z,138.37
2018-11-01T00:24:25.381Z,134.67
2018-11-01T00:26:53.816Z,133.57
2018-11-01T00:29:22.191Z,136.73
2018-11-01T00:31:50.590Z,134.20
2018-11-01T00:34:18.991Z,126.83
2018-11-01T00:36:47.403Z,127.43
2018-11-01T00:39:15.911Z,124.53
2018-11-01T00:41:44.307Z,124.87
2018-11-01T00:44:12.731Z,126.90
2018-11-01T00:46:41.697Z,122.13
2018-11-01T00:49:10.127Z,120.50
2018-11-01T00:51:38.536Z,119.40
2018-11-01T00:54:06.920Z,115.50
2018-11-01T00:56:35.306Z,126.83
2018-11-01T00:59:03.711Z,128.17
2018-11-01T01:01:32.155Z,126.00
2018-11-01T01:04:00.552Z,130.53
2018-11-01T01:06:29.657Z,127.90
2018-11-01T01:08:58.194Z,121.13
2018-11-01T01:11:26.616Z,122.27
2018-11-01T01:13:54.999Z,118.40
2018-11-01T01:16:23.424Z,119.07
2018-11-01T01:18:51.856Z,116.83
2018-11-01T01:21:20.347Z,121.07
2018-11-01T01:23:48.760Z,111.93
2018-11-01T01:26:17.181Z,114.30
2018-11-01T01:28:45.572Z,115.40
2018-11-01T01:31:14.004Z,107.90
2018-11-01T01:33:42.454Z,112.03
2018-11-01T01:36:10.861Z,110.60
2018-11-01T01:38:39.267Z,104.00
2018-11-01T01:41:07.748Z,106.50
2018-11-01T01:43:36.136Z,104.30
2018-11-01T01:46:04.601Z,110.30
2018-11-01T01:48:33.076Z,119.63
2018-11-01T01:51:01.465Z,98.93
2018-11-01T01:53:29.847Z,118.23
2018-11-01T01:55:58.251Z,127.83
2018-11-01T01:58:26.664Z,128.87
2018-11-01T02:00:55.081Z,126.57
2018-11-01T02:03:23.459Z,122.83
2018-11-01T02:05:51.875Z,119.57
2018-11-01T02:08:20.267Z,122.40
2018-11-01T02:10:49.222Z,126.23
2018-11-01T02:13:17.627Z,113.03
2018-11-01T02:15:46.055Z,120.50
2018-11-01T02:18:14.448Z,115.93
2018-11-01T02:20:42.927Z,118.40
2018-11-01T02:23:11.388Z,123.30
2018-11-01T02:25:40.091Z,134.00
2018-11-01T02:28:14.735Z,157.83
2018-11-01T02:30:43.133Z,160.33
2018-11-01T02:33:11.516Z,159.70
2018-11-01T02:35:39.919Z,162.50
2018-11-01T02:38:08.406Z,158.10
2018-11-01T02:40:36.725Z,148.97
2018-11-01T02:43:05.259Z,182.77
2018-11-01T02:45:33.664Z,190.13
2018-11-01T02:48:02.243Z,173.83
2018-11-01T02:50:30.735Z,168.00
2018-11-01T02:52:59.124Z,172.60
2018-11-01T02:55:27.548Z,177.67
2018-11-01T02:57:55.947Z,161.03
2018-11-01T03:00:24.339Z,169.17
2018-11-01T03:02:52.728Z,141.57
2018-11-01T03:05:21.106Z,128.67
2018-11-01T03:07:49.525Z,119.10
2018-11-01T03:10:17.925Z,138.90
2018-11-01T03:12:46.318Z,128.10
2018-11-01T03:15:15.471Z,121.77
2018-11-01T03:17:43.877Z,108.90
2018-11-01T03:20:12.755Z,111.07
2018-11-01T03:22:41.452Z,102.27
2018-11-01T03:25:10.230Z,92.70
2018-11-01T03:27:38.762Z,95.97
2018-11-01T03:30:08.011Z,79.57
2018-11-01T03:32:36.520Z,79.63
2018-11-01T03:35:05.266Z,77.83
2018-11-01T03:37:33.639Z,83.03
2018-11-01T03:40:02.017Z,80.37
2018-11-01T03:42:30.414Z,84.30
2018-11-01T03:44:59.123Z,82.60
2018-11-01T03:47:27.491Z,73.57
2018-11-01T03:49:55.883Z,70.93
2018-11-01T03:52:24.356Z,64.53
2018-11-01T03:54:52.755Z,60.50
2018-11-01T03:57:21.184Z,60.50
2018-11-01T03:59:49.551Z,67.87
2018-11-01T04:02:17.940Z,56.40
2018-11-01T04:04:46.298Z,56.37
2018-11-01T04:07:14.892Z,52.97
2018-11-01T04:09:43.279Z,49.57
2018-11-01T04:12:11.671Z,45.23
2018-11-01T04:14:40.047Z,48.23
2018-11-01T04:17:08.487Z,43.67
2018-11-01T04:19:36.844Z,39.23
2018-11-01T04:22:05.970Z,40.10
2018-11-01T04:24:35.735Z,36.97
2018-11-01T04:27:04.641Z,36.07
2018-11-01T04:29:33.906Z,33.83
2018-11-01T04:32:02.280Z,31.53
2018-11-01T04:34:30.891Z,32.60
2018-11-01T04:36:59.277Z,31.73
2018-11-01T04:39:27.646Z,29.60
2018-11-01T04:41:57.008Z,24.67
2018-11-01T04:44:25.433Z,22.37
2018-11-01T04:46:53.855Z,20.67
2018-11-01T04:49:22.260Z,32.00
2018-11-01T04:51:50.649Z,24.97
2018-11-01T04:54:19.034Z,27.13
2018-11-01T04:56:47.423Z,29.87
2018-11-01T04:59:15.807Z,31.37
2018-11-01T05:01:44.249Z,32.23
2018-11-01T05:04:12.623Z,28.13
2018-11-01T05:06:41.067Z,24.97
2018-11-01T05:09:09.392Z,27.07
2018-11-01T05:11:38.731Z,26.00
2018-11-01T05:14:07.155Z,23.60
2018-11-01T05:16:35.539Z,24.83
2018-11-01T05:19:03.936Z,21.50
2018-11-01T05:21:32.299Z,21.07
2018-11-01T05:24:02.672Z,23.00
2018-11-01T05:26:32.064Z,17.43
2018-11-01T05:29:00.451Z,17.93
2018-11-01T05:31:29.027Z,19.73
2018-11-01T05:33:57.933Z,17.33
2018-11-01T05:36:26.343Z,16.87
2018-11-01T05:38:54.727Z,17.10
2018-11-01T05:41:23.472Z,15.70
2018-11-01T05:43:51.860Z,16.23
2018-11-01T05:46:20.239Z,15.07
2018-11-01T05:48:48.611Z,14.20
2018-11-01T05:51:17.034Z,15.30
2018-11-01T05:53:45.415Z,14.00
2018-11-01T05:56:13.816Z,13.10
2018-11-01T05:58:42.183Z,11.30
2018-11-01T06:01:12.251Z,13.33
2018-11-01T06:03:40.987Z,32.87
2018-11-01T06:06:09.379Z,20.17
2018-11-01T06:08:40.403Z,46.80
2018-11-01T06:11:08.823Z,35.70
2018-11-01T06:13:37.188Z,28.97
2018-11-01T06:16:06.043Z,33.37
2018-11-01T06:18:34.544Z,35.57
2018-11-01T06:21:03.112Z,34.53
2018-11-01T06:23:31.504Z,32.90
2018-11-01T06:26:00.007Z,30.13
2018-11-01T06:28:28.478Z,33.67
2018-11-01T06:30:56.807Z,27.13
2018-11-01T06:33:25.231Z,30.53
2018-11-01T06:35:55.631Z,30.57
2018-11-01T06:38:24.022Z,31.43
2018-11-01T06:40:52.394Z,27.47
2018-11-01T06:43:20.796Z,28.97
2018-11-01T06:45:49.194Z,46.63
2018-11-01T06:48:17.552Z,47.40
2018-11-01T06:50:45.935Z,49.00
2018-11-01T06:53:14.323Z,53.53
2018-11-01T06:55:42.703Z,51.87
2018-11-01T06:58:11.084Z,50.63
2018-11-01T07:00:39.488Z,51.90
2018-11-01T07:03:07.948Z,49.60
2018-11-01T07:05:36.342Z,45.37
2018-11-01T07:08:05.144Z,49.77
2018-11-01T07:10:33.545Z,45.37
2018-11-01T07:13:01.929Z,48.33
2018-11-01T07:15:30.332Z,43.90
2018-11-01T07:17:58.807Z,45.70
2018-11-01T07:20:27.211Z,44.37
2018-11-01T07:22:55.599Z,47.77
2018-11-01T07:25:24.069Z,46.87
2018-11-01T07:27:52.403Z,38.80
2018-11-01T07:30:20.804Z,52.33
2018-11-01T07:32:49.212Z,56.83
2018-11-01T07:35:17.691Z,45.13
2018-11-01T07:37:46.617Z,46.40
2018-11-01T07:40:17.169Z,41.90
2018-11-01T07:42:45.565Z,36.63
2018-11-01T07:45:14.501Z,38.07
2018-11-01T07:47:43.796Z,39.17
2018-11-01T07:50:13.100Z,33.37
2018-11-01T07:52:42.192Z,27.60
2018-11-01T07:55:12.403Z,34.57
2018-11-01T07:57:40.789Z,40.53
2018-11-01T08:00:12.569Z,47.53
2018-11-01T08:02:41.360Z,45.83
2018-11-01T08:05:10.635Z,38.33
2018-11-01T08:07:39.131Z,38.33
2018-11-01T08:10:13.029Z,34.00
2018-11-01T08:12:42.355Z,33.23
2018-11-01T08:15:13.179Z,38.43
2018-11-01T08:17:41.856Z,31.70
2018-11-01T08:20:12.199Z,30.73
2018-11-01T08:22:40.543Z,26.13
2018-11-01T08:25:09.517Z,26.30
2018-11-01T08:27:38.446Z,25.80
2018-11-01T08:30:08.552Z,26.00
2018-11-01T08:32:37.052Z,27.17
2018-11-01T08:35:06.166Z,25.90
2018-11-01T08:37:34.707Z,27.70
2018-11-01T08:40:03.509Z,26.27
2018-11-01T08:42:31.896Z,30.33
2018-11-01T08:45:00.317Z,52.80
2018-11-01T08:47:28.701Z,66.13
2018-11-01T08:49:57.185Z,71.07
2018-11-01T08:52:25.668Z,65.27
2018-11-01T08:54:54.053Z,65.30
2018-11-01T08:57:22.455Z,60.40
2018-11-01T08:59:50.827Z,63.37
2018-11-01T09:02:19.223Z,85.87
2018-11-01T09:04:47.796Z,96.87
2018-11-01T09:07:16.237Z,98.40
2018-11-01T09:09:44.871Z,89.23
2018-11-01T09:12:13.366Z,99.27
2018-11-01T09:14:41.797Z,107.97
2018-11-01T09:17:10.144Z,90.20
2018-11-01T09:19:38.619Z,103.87
2018-11-01T09:22:07.401Z,94.07
2018-11-01T09:24:35.772Z,91.10
2018-11-01T09:27:04.848Z,97.30
2018-11-01T09:29:33.152Z,105.70
2018-11-01T09:32:01.671Z,109.00
2018-11-01T09:34:30.220Z,116.50
2018-11-01T09:36:58.664Z,108.23
2018-11-01T09:39:27.032Z,114.80
2018-11-01T09:41:55.456Z,125.53
2018-11-01T09:44:23.840Z,118.47
2018-11-01T09:46:52.452Z,121.13
2018-11-01T09:49:20.666Z,139.07
2018-11-01T09:51:49.067Z,158.37
2018-11-01T09:54:17.451Z,150.93
2018-11-01T09:56:45.858Z,144.67
2018-11-01T09:59:14.241Z,137.33
2018-11-01T10:01:42.648Z,130.90
2018-11-01T10:04:11.020Z,125.07
2018-11-01T10:06:39.420Z,141.73
2018-11-01T10:09:08.744Z,146.13
2018-11-01T10:11:37.358Z,144.87
2018-11-01T10:14:06.287Z,125.50
2018-11-01T10:16:34.865Z,101.00
2018-11-01T10:19:03.247Z,81.30
2018-11-01T10:21:32.014Z,75.23
2018-11-01T10:24:00.363Z,87.50
2018-11-01T10:26:28.749Z,81.27
2018-11-01T10:28:57.222Z,66.80
2018-11-01T10:31:25.663Z,64.00
2018-11-01T10:33:54.137Z,60.03
2018-11-01T10:36:22.536Z,79.33
2018-11-01T10:38:50.952Z,91.93
2018-11-01T10:41:19.518Z,97.60
2018-11-01T10:43:47.919Z,93.33
2018-11-01T10:46:16.340Z,97.23
2018-11-01T10:48:44.719Z,95.53
2018-11-01T10:51:13.141Z,91.33
2018-11-01T10:53:41.597Z,88.03
2018-11-01T10:56:09.947Z,57.87
2018-11-01T10:58:38.435Z,77.93
2018-11-01T11:01:12.235Z,76.60
2018-11-01T11:03:40.564Z,78.43
2018-11-01T11:06:09.359Z,90.43
2018-11-01T11:08:37.915Z,78.97
2018-11-01T11:11:06.305Z,106.10
2018-11-01T11:13:34.717Z,114.03
2018-11-01T11:16:03.691Z,105.67
2018-11-01T11:18:32.154Z,109.10
2018-11-01T11:21:00.876Z,117.17
2018-11-01T11:23:28.984Z,97.47
2018-11-01T11:25:57.379Z,103.93
2018-11-01T11:28:25.845Z,102.07
2018-11-01T11:30:54.235Z,95.43
2018-11-01T11:33:22.630Z,87.97
2018-11-01T11:35:51.032Z,90.97
2018-11-01T11:38:19.412Z,83.83
2018-11-01T11:40:47.811Z,89.10
2018-11-01T11:43:16.187Z,82.07
2018-11-01T11:45:44.594Z,80.10
2018-11-01T11:48:12.983Z,75.77
2018-11-01T11:50:41.421Z,70.17
2018-11-01T11:53:09.838Z,71.07
2018-11-01T11:55:38.296Z,66.33
2018-11-01T11:58:06.702Z,64.83
2018-11-01T12:00:35.074Z,64.93
2018-11-01T12:03:03.583Z,58.27
2018-11-01T12:05:32.109Z,62.83
2018-11-01T12:08:00.355Z,57.10
2018-11-01T12:10:28.763Z,51.30
2018-11-01T12:12:57.140Z,50.83
2018-11-01T12:15:25.522Z,46.57
2018-11-01T12:17:53.888Z,46.97
2018-11-01T12:20:22.283Z,60.83
2018-11-01T12:22:50.691Z,59.30
2018-11-01T12:25:19.102Z,60.93
2018-11-01T12:27:47.497Z,57.40
2018-11-01T12:30:15.889Z,51.93
2018-11-01T12:32:44.281Z,61.37
2018-11-01T12:35:12.727Z,58.57
2018-11-01T12:37:41.119Z,60.50
2018-11-01T12:40:11.121Z,59.70
2018-11-01T12:42:39.531Z,59.10
2018-11-01T12:45:09.416Z,57.43
2018-11-01T12:47:37.792Z,51.60
2018-11-01T12:50:07.849Z,51.97
2018-11-01T12:52:36.099Z,52.80
2018-11-01T12:55:05.034Z,49.00
2018-11-01T12:57:33.972Z,46.97
2018-11-01T13:00:02.372Z,47.97
2018-11-01T13:02:30.796Z,46.13
2018-11-01T13:04:59.179Z,46.43
2018-11-01T13:07:27.552Z,44.23
2018-11-01T13:09:55.983Z,47.57
2018-11-01T13:12:25.212Z,45.00
2018-11-01T13:14:53.619Z,43.27
2018-11-01T13:17:22.020Z,40.67
2018-11-01T13:19:50.497Z,36.53
2018-11-01T13:22:18.907Z,40.20
2018-11-01T13:24:47.376Z,38.00
2018-11-01T13:27:15.746Z,37.40
2018-11-01T13:29:44.155Z,34.17
2018-11-01T13:32:12.546Z,35.43
2018-11-01T13:34:42.619Z,44.30
2018-11-01T13:37:11.015Z,56.13
2018-11-01T13:39:40.172Z,45.77
2018-11-01T13:42:08.655Z,49.03
2018-11-01T13:44:37.267Z,43.53
2018-11-01T13:47:06.023Z,43.23
2018-11-01T13:49:34.419Z,42.00
2018-11-01T13:52:02.887Z,48.43
2018-11-01T13:54:31.253Z,39.17
2018-11-01T13:56:59.610Z,37.97
2018-11-01T13:59:28.009Z,37.57
2018-11-01T14:01:56.648Z,34.10
2018-11-01T14:04:25.107Z,43.10
2018-11-01T14:06:53.514Z,31.97
2018-11-01T14:09:21.900Z,31.50
2018-11-01T14:11:50.373Z,28.17
2018-11-01T14:14:20.649Z,26.33
2018-11-01T14:16:49.598Z,27.13
2018-11-01T14:19:17.998Z,23.60
2018-11-01T14:21:46.387Z,32.60
2018-11-01T14:24:14.856Z,23.90
2018-11-01T14:26:43.292Z,23.17
2018-11-01T14:29:11.677Z,22.50
2018-11-01T14:31:40.786Z,23.07
2018-11-01T14:34:09.792Z,21.07
2018-11-01T14:36:39.051Z,26.40
2018-11-01T14:39:10.536Z,26.83
2018-11-01T14:41:38.955Z,22.90
2018-11-01T14:44:07.909Z,23.27
2018-11-01T14:46:36.311Z,20.80
2018-11-01T14:49:05.120Z,25.00
2018-11-01T14:51:33.516Z,22.87
2018-11-01T14:54:03.537Z,25.93
2018-11-01T14:56:32.862Z,32.73
2018-11-01T14:59:01.436Z,30.10
2018-11-01T15:01:28.237Z,30.63
2018-11-01T15:03:57.646Z,24.90
2018-11-01T15:06:26.620Z,32.20
2018-11-01T15:08:55.127Z,28.23
2018-11-01T15:11:23.568Z,27.20
2018-11-01T15:13:51.976Z,33.50
2018-11-01T15:16:20.928Z,27.40
2018-11-01T15:18:49.844Z,32.57
2018-11-01T15:21:18.190Z,25.90
2018-11-01T15:23:46.635Z,27.20
2018-11-01T15:26:15.823Z,31.37
2018-11-01T15:28:44.153Z,24.30
2018-11-01T15:31:12.537Z,29.30
2018-11-01T15:33:41.666Z,30.13
2018-11-01T15:36:09.970Z,24.90
2018-11-01T15:38:38.379Z,25.57
2018-11-01T15:41:11.552Z,23.60
2018-11-01T15:43:40.562Z,22.33
2018-11-01T15:46:09.740Z,24.27
2018-11-01T15:48:38.185Z,28.60
2018-11-01T15:51:07.632Z,30.43
2018-11-01T15:53:36.051Z,30.50
2018-11-01T15:56:04.665Z,29.03
2018-11-01T15:58:33.144Z,25.93
2018-11-01T16:01:01.518Z,29.93
2018-11-01T16:03:29.945Z,28.27
2018-11-01T16:05:58.348Z,23.43
2018-11-01T16:08:26.757Z,24.53
2018-11-01T16:10:55.148Z,22.13
2018-11-01T16:13:23.585Z,24.63
2018-11-01T16:15:51.991Z,27.97
2018-11-01T16:18:20.372Z,31.73
2018-11-01T16:20:48.775Z,28.40
2018-11-01T16:23:17.229Z,31.67
2018-11-01T16:25:45.629Z,27.10
2018-11-01T16:28:14.138Z,28.90
2018-11-01T16:30:42.507Z,24.53
2018-11-01T16:33:11.007Z,26.90
2018-11-01T16:35:39.539Z,26.17
2018-11-01T16:38:07.988Z,23.00
2018-11-01T16:40:36.412Z,31.13
2018-11-01T16:43:05.093Z,33.40
2018-11-01T16:45:33.508Z,24.47
2018-11-01T16:48:01.919Z,18.40
2018-11-01T16:50:30.326Z,24.57
2018-11-01T16:52:58.752Z,31.70
2018-11-01T16:55:27.359Z,21.30
2018-11-01T16:57:55.880Z,27.77
2018-11-01T17:00:24.374Z,31.83
2018-11-01T17:02:52.723Z,35.60
2018-11-01T17:05:21.140Z,31.33
2018-11-01T17:07:49.571Z,56.70
2018-11-01T17:10:17.972Z,36.77
2018-11-01T17:12:46.373Z,40.00
2018-11-01T17:15:15.701Z,38.77
2018-11-01T17:17:44.799Z,38.60
2018-11-01T17:20:13.233Z,34.70
2018-11-01T17:22:42.275Z,36.17
2018-11-01T17:25:10.857Z,34.07
2018-11-01T17:27:39.293Z,40.80
2018-11-01T17:30:08.907Z,49.47
2018-11-01T17:32:42.769Z,58.20
2018-11-01T17:35:11.191Z,74.70
2018-11-01T17:37:39.622Z,55.77
2018-11-01T17:40:08.796Z,66.27
2018-11-01T17:42:37.282Z,66.87
2018-11-01T17:45:06.818Z,51.97
2018-11-01T17:47:35.309Z,46.60
2018-11-01T17:50:04.218Z,48.57
2018-11-01T17:52:32.688Z,50.27
2018-11-01T17:55:01.103Z,46.97
2018-11-01T17:57:29.623Z,49.00
2018-11-01T17:59:58.237Z,53.63
2018-11-01T18:02:26.734Z,60.90
2018-11-01T18:04:55.114Z,73.40
2018-11-01T18:07:23.615Z,71.73
2018-11-01T18:09:52.237Z,75.60
2018-11-01T18:12:20.632Z,78.80
2018-11-01T18:14:49.148Z,79.33
2018-11-01T18:17:17.558Z,75.97
2018-11-01T18:19:46.056Z,82.23
2018-11-01T18:22:14.456Z,82.13
2018-11-01T18:24:42.915Z,76.27
2018-11-01T18:27:11.347Z,74.97
2018-11-01T18:29:39.949Z,73.90
2018-11-01T18:32:08.372Z,65.27
2018-11-01T18:34:36.871Z,118.07
2018-11-01T18:37:05.457Z,94.50
2018-11-01T18:39:33.968Z,126.40
2018-11-01T18:42:02.357Z,140.93
2018-11-01T18:44:30.864Z,128.30
2018-11-01T18:46:59.308Z,125.57
2018-11-01T18:49:27.811Z,125.30
2018-11-01T18:51:56.241Z,126.03
2018-11-01T18:54:24.779Z,120.67
2018-11-01T18:56:53.144Z,160.80
2018-11-01T18:59:21.568Z,188.30
2018-11-01T19:01:50.027Z,195.80
2018-11-01T19:04:18.521Z,185.20
2018-11-01T19:06:46.988Z,179.63
2018-11-01T19:09:15.417Z,181.67
2018-11-01T19:11:43.910Z,165.40
2018-11-01T19:14:12.483Z,163.17
2018-11-01T19:16:40.841Z,165.20
2018-11-01T19:19:09.405Z,159.13
2018-11-01T19:21:37.888Z,159.70
2018-11-01T19:24:06.411Z,157.17
2018-11-01T19:26:36.167Z,150.60
2018-11-01T19:29:04.529Z,143.20
2018-11-01T19:31:33.012Z,142.70
2018-11-01T19:34:01.617Z,136.17
2018-11-01T19:36:29.995Z,137.93
2018-11-01T19:38:58.482Z,131.57
2018-11-01T19:41:27.006Z,136.40
2018-11-01T19:56:54.903Z,132.37
2018-11-01T19:59:23.406Z,120.60
2018-11-01T20:01:51.859Z,130.40
2018-11-01T20:04:20.389Z,128.60
2018-11-01T20:06:48.844Z,140.13
2018-11-01T20:09:17.300Z,132.47
2018-11-01T20:11:45.734Z,123.33
2018-11-01T20:14:17.197Z,121.33
2018-11-01T20:16:45.612Z,119.40
2018-11-01T20:19:14.246Z,126.80
2018-11-01T20:21:43.079Z,134.93
2018-11-01T20:24:11.404Z,150.37
2018-11-01T20:26:39.904Z,160.77
2018-11-01T20:29:08.358Z,142.83
2018-11-01T20:31:36.846Z,143.40
2018-11-01T20:34:05.281Z,144.17
2018-11-01T20:36:33.832Z,139.77
2018-11-01T20:39:02.305Z,134.53
2018-11-01T20:41:30.719Z,143.37
2018-11-01T20:43:59.144Z,113.63
2018-11-01T20:46:27.701Z,117.40
2018-11-01T20:48:56.256Z,121.47
2018-11-01T20:51:24.672Z,121.33
2018-11-01T20:53:53.107Z,122.73
2018-11-01T20:56:21.548Z,125.80
2018-11-01T20:58:50.009Z,126.77
2018-11-01T21:01:18.420Z,145.50
2018-11-01T21:03:46.839Z,136.47
2018-11-01T21:06:15.277Z,137.33
2018-11-01T21:08:43.705Z,160.13
2018-11-01T21:11:12.290Z,167.30
2018-11-01T21:13:40.734Z,164.03
2018-11-01T21:16:09.273Z,173.20
2018-11-01T21:18:37.744Z,164.00
2018-11-01T21:21:06.147Z,163.57
2018-11-01T21:23:34.556Z,164.53
2018-11-01T21:26:03.082Z,164.07
2018-11-01T21:28:31.568Z,161.43
2018-11-01T21:31:00.095Z,153.47
2018-11-01T21:33:28.610Z,178.80
2018-11-01T21:35:57.222Z,167.47
2018-11-01T21:38:25.567Z,163.30
2018-11-01T21:40:53.968Z,156.73
2018-11-01T21:43:22.367Z,160.57
2018-11-01T21:45:50.795Z,151.10
2018-11-01T21:48:19.186Z,150.47
2018-11-01T21:50:47.619Z,153.33
2018-11-01T21:53:16.123Z,153.53
2018-11-01T21:55:44.551Z,146.17
2018-11-01T21:58:12.960Z,146.27
2018-11-01T22:00:42.128Z,146.07
2018-11-01T22:03:10.525Z,140.90
2018-11-01T22:05:38.975Z,144.57
2018-11-01T22:08:07.391Z,153.47
2018-11-01T22:10:35.825Z,159.67
2018-11-01T22:13:04.238Z,161.00
2018-11-01T22:15:32.637Z,153.37
2018-11-01T22:18:01.052Z,164.50
2018-11-01T22:20:29.483Z,155.17
2018-11-01T22:22:58.077Z,161.03
2018-11-01T22:25:27.171Z,155.17
2018-11-01T22:27:56.197Z,149.93
2018-11-01T22:30:24.659Z,152.43
2018-11-01T22:32:53.114Z,180.40
2018-11-01T22:35:21.540Z,176.57
2018-11-01T22:37:49.953Z,174.17
2018-11-01T22:40:18.362Z,175.17
2018-11-01T22:42:46.780Z,170.57
2018-11-01T22:45:15.220Z,170.93
2018-11-01T22:47:43.638Z,164.53
2018-11-01T22:50:12.379Z,172.53
2018-11-01T22:52:41.196Z,163.07
2018-11-01T22:55:10.901Z,159.63
2018-11-01T22:57:39.325Z,157.00
2018-11-01T23:00:10.213Z,158.70
2018-11-01T23:02:38.627Z,155.30
2018-11-01T23:05:07.683Z,149.53
2018-11-01T23:07:36.156Z,153.53
2018-11-01T23:10:05.646Z,141.90
2018-11-01T23:12:34.071Z,180.60
2018-11-01T23:15:02.467Z,176.90
2018-11-01T23:17:30.876Z,173.63
2018-11-01T23:19:59.335Z,170.67
2018-11-01T23:22:27.779Z,172.30
2018-11-01T23:24:56.181Z,174.40
2018-11-01T23:27:24.616Z,167.53
2018-11-01T23:29:53.034Z,163.47
2018-11-01T23:32:21.556Z,159.00
2018-11-01T23:34:49.988Z,162.10
2018-11-01T23:37:23.712Z,153.43
2018-11-01T23:39:57.464Z,155.47
2018-11-01T23:42:31.264Z,150.30
2018-11-01T23:45:05.078Z,155.73
2018-11-01T23:47:39.068Z,146.67
2018-11-01T23:50:12.789Z,145.57
2018-11-01T23:52:42.565Z,146.10
2018-11-01T23:55:11.010Z,140.37
2018-11-01T23:57:39.451Z,144.07
